sensor_id;sensor_type;location;lat;lon;timestamp;temperature;humidity
9776;DHT22;4927;52.472;13.108;2022-11-25T00:02:35;3.60;99.90
9776;DHT22;4927;52.472;13.108;2022-11-25T00:07:41;3.60;99.90
9776;DHT22;4927;52.472;13.108;2022-11-25T00:23:18;3.50;99.90
9776;DHT22;4927;52.472;13.108;2022-11-25T00:28:24;3.50;99.90
9776;DHT22;4927;52.472;13.108;2022-11-25T00:33:30;3.60;99.90
9776;DHT22;4927;52.472;13.108;2022-11-25T00:38:36;3.60;99.90
9776;DHT22;4927;52.472;13.108;2022-11-25T00:43:43;3.60;99.90
9776;DHT22;4927;52.472;13.108;2022-11-25T00:48:56;3.60;99.90
9776;DHT22;4927;52.472;13.108;2022-11-25T00:54:02;3.60;99.90
9776;DHT22;4927;52.472;13.108;2022-11-25T00:59:08;3.70;99.90
9776;DHT22;4927;52.472;13.108;2022-11-25T01:04:15;3.70;99.90
9776;DHT22;4927;52.472;13.108;2022-11-25T01:09:21;3.70;99.90
9776;DHT22;4927;52.472;13.108;2022-11-25T01:14:27;3.70;99.90
9776;DHT22;4927;52.472;13.108;2022-11-25T01:19:34;3.70;99.90
9776;DHT22;4927;52.472;13.108;2022-11-25T01:24:38;3.70;99.90
9776;DHT22;4927;52.472;13.108;2022-11-25T01:29:44;3.70;99.90
9776;DHT22;4927;52.472;13.108;2022-11-25T01:34:50;3.70;99.90
9776;DHT22;4927;52.472;13.108;2022-11-25T01:39:56;3.70;99.90
9776;DHT22;4927;52.472;13.108;2022-11-25T01:45:19;3.70;99.90
9776;DHT22;4927;52.472;13.108;2022-11-25T01:50:12;3.70;99.90
9776;DHT22;4927;52.472;13.108;2022-11-25T01:55:19;3.60;99.90
9776;DHT22;4927;52.472;13.108;2022-11-25T02:00:23;3.50;99.90
9776;DHT22;4927;52.472;13.108;2022-11-25T02:05:41;3.40;99.90
9776;DHT22;4927;52.472;13.108;2022-11-25T02:10:45;3.20;99.90
9776;DHT22;4927;52.472;13.108;2022-11-25T02:15:52;3.10;99.90
9776;DHT22;4927;52.472;13.108;2022-11-25T02:20:57;3.10;99.90
9776;DHT22;4927;52.472;13.108;2022-11-25T02:26:02;3.10;99.90
9776;DHT22;4927;52.472;13.108;2022-11-25T02:31:08;3.10;99.90
9776;DHT22;4927;52.472;13.108;2022-11-25T02:36:15;3.20;99.90
9776;DHT22;4927;52.472;13.108;2022-11-25T02:41:21;3.20;99.90
9776;DHT22;4927;52.472;13.108;2022-11-25T02:46:26;3.20;99.90
9776;DHT22;4927;52.472;13.108;2022-11-25T02:51:30;3.20;99.90
9776;DHT22;4927;52.472;13.108;2022-11-25T02:56:35;3.30;99.90
9776;DHT22;4927;52.472;13.108;2022-11-25T03:01:41;3.20;99.90
9776;DHT22;4927;52.472;13.108;2022-11-25T03:06:45;3.30;99.90
9776;DHT22;4927;52.472;13.108;2022-11-25T03:11:51;3.30;99.90
9776;DHT22;4927;52.472;13.108;2022-11-25T03:17:03;3.30;99.90
9776;DHT22;4927;52.472;13.108;2022-11-25T03:22:07;3.40;99.90
9776;DHT22;4927;52.472;13.108;2022-11-25T03:27:12;3.40;99.90
9776;DHT22;4927;52.472;13.108;2022-11-25T03:32:16;3.50;99.90
9776;DHT22;4927;52.472;13.108;2022-11-25T03:37:22;3.50;99.90
9776;DHT22;4927;52.472;13.108;2022-11-25T03:42:28;3.50;99.90
9776;DHT22;4927;52.472;13.108;2022-11-25T03:47:33;3.50;99.90
9776;DHT22;4927;52.472;13.108;2022-11-25T03:52:39;3.60;99.90
9776;DHT22;4927;52.472;13.108;2022-11-25T03:57:44;3.60;99.90
9776;DHT22;4927;52.472;13.108;2022-11-25T04:02:50;3.60;99.90
9776;DHT22;4927;52.472;13.108;2022-11-25T04:07:54;3.60;99.90
9776;DHT22;4927;52.472;13.108;2022-11-25T04:13:01;3.60;99.90
9776;DHT22;4927;52.472;13.108;2022-11-25T04:18:07;3.60;99.90
9776;DHT22;4927;52.472;13.108;2022-11-25T04:23:13;3.70;99.90
9776;DHT22;4927;52.472;13.108;2022-11-25T04:28:19;3.70;99.90
9776;DHT22;4927;52.472;13.108;2022-11-25T04:33:26;3.70;99.90
9776;DHT22;4927;52.472;13.108;2022-11-25T04:38:32;3.70;99.90
9776;DHT22;4927;52.472;13.108;2022-11-25T04:43:40;3.80;99.90
9776;DHT22;4927;52.472;13.108;2022-11-25T04:48:47;3.80;99.90
9776;DHT22;4927;52.472;13.108;2022-11-25T04:53:53;3.80;99.90
9776;DHT22;4927;52.472;13.108;2022-11-25T04:58:59;3.80;99.90
9776;DHT22;4927;52.472;13.108;2022-11-25T05:04:09;3.80;99.90
9776;DHT22;4927;52.472;13.108;2022-11-25T05:09:14;3.80;99.90
9776;DHT22;4927;52.472;13.108;2022-11-25T05:14:21;3.80;99.90
9776;DHT22;4927;52.472;13.108;2022-11-25T05:19:27;3.80;99.90
9776;DHT22;4927;52.472;13.108;2022-11-25T05:24:31;3.70;99.90
9776;DHT22;4927;52.472;13.108;2022-11-25T05:29:35;3.70;99.90
9776;DHT22;4927;52.472;13.108;2022-11-25T05:34:42;3.70;99.90
9776;DHT22;4927;52.472;13.108;2022-11-25T05:39:46;3.70;99.90
9776;DHT22;4927;52.472;13.108;2022-11-25T05:44:52;3.70;99.90
9776;DHT22;4927;52.472;13.108;2022-11-25T05:49:56;3.50;99.90
9776;DHT22;4927;52.472;13.108;2022-11-25T05:55:04;3.40;99.90
9776;DHT22;4927;52.472;13.108;2022-11-25T06:00:09;3.30;99.90
9776;DHT22;4927;52.472;13.108;2022-11-25T06:05:16;3.20;99.90
9776;DHT22;4927;52.472;13.108;2022-11-25T06:10:20;3.20;99.90
9776;DHT22;4927;52.472;13.108;2022-11-25T06:15:26;3.10;99.90
9776;DHT22;4927;52.472;13.108;2022-11-25T06:20:32;3.10;99.90
9776;DHT22;4927;52.472;13.108;2022-11-25T06:25:39;2.90;99.90
9776;DHT22;4927;52.472;13.108;2022-11-25T06:30:44;2.90;99.90
9776;DHT22;4927;52.472;13.108;2022-11-25T06:35:50;2.70;99.90
9776;DHT22;4927;52.472;13.108;2022-11-25T06:41:01;2.60;99.90
9776;DHT22;4927;52.472;13.108;2022-11-25T06:46:08;2.50;99.90
9776;DHT22;4927;52.472;13.108;2022-11-25T06:51:14;2.50;99.90
9776;DHT22;4927;52.472;13.108;2022-11-25T06:56:19;2.40;99.90
9776;DHT22;4927;52.472;13.108;2022-11-25T07:01:24;2.30;99.90
9776;DHT22;4927;52.472;13.108;2022-11-25T07:06:30;2.30;99.90
9776;DHT22;4927;52.472;13.108;2022-11-25T07:11:38;2.20;99.90
9776;DHT22;4927;52.472;13.108;2022-11-25T07:16:44;2.20;99.90
9776;DHT22;4927;52.472;13.108;2022-11-25T07:21:49;2.40;99.90
9776;DHT22;4927;52.472;13.108;2022-11-25T07:26:56;2.50;99.90
9776;DHT22;4927;52.472;13.108;2022-11-25T07:32:02;2.70;99.90
9776;DHT22;4927;52.472;13.108;2022-11-25T07:37:09;2.80;99.90
9776;DHT22;4927;52.472;13.108;2022-11-25T07:42:15;3.00;99.90
9776;DHT22;4927;52.472;13.108;2022-11-25T07:47:21;3.00;99.90
9776;DHT22;4927;52.472;13.108;2022-11-25T07:52:27;3.10;99.90
9776;DHT22;4927;52.472;13.108;2022-11-25T07:57:34;3.20;99.90
9776;DHT22;4927;52.472;13.108;2022-11-25T08:02:38;3.30;99.90
9776;DHT22;4927;52.472;13.108;2022-11-25T08:07:44;3.40;99.90
9776;DHT22;4927;52.472;13.108;2022-11-25T08:12:50;3.40;99.90
9776;DHT22;4927;52.472;13.108;2022-11-25T08:17:57;3.50;99.90
9776;DHT22;4927;52.472;13.108;2022-11-25T08:23:04;3.70;99.90
9776;DHT22;4927;52.472;13.108;2022-11-25T08:28:10;3.70;99.90
9776;DHT22;4927;52.472;13.108;2022-11-25T08:33:16;3.70;99.90
9776;DHT22;4927;52.472;13.108;2022-11-25T08:38:22;3.90;99.90
9776;DHT22;4927;52.472;13.108;2022-11-25T08:43:29;4.00;99.90
9776;DHT22;4927;52.472;13.108;2022-11-25T08:48:35;4.10;99.90
9776;DHT22;4927;52.472;13.108;2022-11-25T08:53:40;4.20;99.90
9776;DHT22;4927;52.472;13.108;2022-11-25T08:58:46;4.20;99.90
9776;DHT22;4927;52.472;13.108;2022-11-25T09:03:53;4.30;99.90
9776;DHT22;4927;52.472;13.108;2022-11-25T09:08:59;4.40;99.90
9776;DHT22;4927;52.472;13.108;2022-11-25T09:14:05;4.60;99.90
9776;DHT22;4927;52.472;13.108;2022-11-25T09:19:11;4.50;99.90
9776;DHT22;4927;52.472;13.108;2022-11-25T09:24:18;4.60;99.90
9776;DHT22;4927;52.472;13.108;2022-11-25T09:29:22;4.70;99.90
9776;DHT22;4927;52.472;13.108;2022-11-25T09:34:28;4.70;99.90
9776;DHT22;4927;52.472;13.108;2022-11-25T09:39:34;4.70;99.90
9776;DHT22;4927;52.472;13.108;2022-11-25T09:44:57;4.70;99.90
9776;DHT22;4927;52.472;13.108;2022-11-25T09:50:13;4.60;99.90
9776;DHT22;4927;52.472;13.108;2022-11-25T09:55:17;4.60;99.90
9776;DHT22;4927;52.472;13.108;2022-11-25T10:00:22;4.90;99.90
9776;DHT22;4927;52.472;13.108;2022-11-25T10:05:45;4.90;99.90
9776;DHT22;4927;52.472;13.108;2022-11-25T10:10:54;5.10;99.90
9776;DHT22;4927;52.472;13.108;2022-11-25T10:15:56;5.10;99.90
9776;DHT22;4927;52.472;13.108;2022-11-25T10:21:02;5.30;99.90
9776;DHT22;4927;52.472;13.108;2022-11-25T10:26:14;5.60;99.90
9776;DHT22;4927;52.472;13.108;2022-11-25T10:31:19;5.60;99.90
9776;DHT22;4927;52.472;13.108;2022-11-25T10:36:32;5.70;99.90
9776;DHT22;4927;52.472;13.108;2022-11-25T10:41:58;5.80;99.90
9776;DHT22;4927;52.472;13.108;2022-11-25T10:47:25;5.90;99.90
9776;DHT22;4927;52.472;13.108;2022-11-25T10:52:32;6.20;99.90
9776;DHT22;4927;52.472;13.108;2022-11-25T10:57:34;6.30;99.90
9776;DHT22;4927;52.472;13.108;2022-11-25T11:02:41;6.50;99.90
9776;DHT22;4927;52.472;13.108;2022-11-25T11:07:47;6.60;99.90
9776;DHT22;4927;52.472;13.108;2022-11-25T11:12:57;6.90;99.90
9776;DHT22;4927;52.472;13.108;2022-11-25T11:23:14;7.10;99.90
9776;DHT22;4927;52.472;13.108;2022-11-25T11:34:04;7.50;99.90
9776;DHT22;4927;52.472;13.108;2022-11-25T11:45:16;7.70;99.90
9776;DHT22;4927;52.472;13.108;2022-11-25T11:50:31;8.00;99.90
9776;DHT22;4927;52.472;13.108;2022-11-25T11:55:47;8.00;99.90
9776;DHT22;4927;52.472;13.108;2022-11-25T12:00:57;8.00;99.90
9776;DHT22;4927;52.472;13.108;2022-11-25T12:05:59;8.00;99.90
9776;DHT22;4927;52.472;13.108;2022-11-25T12:11:10;8.00;99.90
9776;DHT22;4927;52.472;13.108;2022-11-25T12:16:18;8.00;99.90
9776;DHT22;4927;52.472;13.108;2022-11-25T12:21:43;8.00;99.90
9776;DHT22;4927;52.472;13.108;2022-11-25T12:27:14;8.00;99.90
9776;DHT22;4927;52.472;13.108;2022-11-25T12:32:43;8.00;99.90
9776;DHT22;4927;52.472;13.108;2022-11-25T12:38:14;8.20;99.90
9776;DHT22;4927;52.472;13.108;2022-11-25T12:43:33;8.20;99.90
9776;DHT22;4927;52.472;13.108;2022-11-25T12:48:39;8.20;99.90
9776;DHT22;4927;52.472;13.108;2022-11-25T12:59:17;8.20;99.90
9776;DHT22;4927;52.472;13.108;2022-11-25T13:04:38;8.20;99.90
9776;DHT22;4927;52.472;13.108;2022-11-25T13:09:55;8.20;99.90
9776;DHT22;4927;52.472;13.108;2022-11-25T13:15:11;8.20;99.90
9776;DHT22;4927;52.472;13.108;2022-11-25T13:25:27;8.10;99.90
9776;DHT22;4927;52.472;13.108;2022-11-25T13:30:36;8.10;99.90
9776;DHT22;4927;52.472;13.108;2022-11-25T13:35:56;8.10;99.90
9776;DHT22;4927;52.472;13.108;2022-11-25T13:41:19;8.10;99.90
9776;DHT22;4927;52.472;13.108;2022-11-25T13:46:09;8.10;99.90
9776;DHT22;4927;52.472;13.108;2022-11-25T13:51:18;8.20;99.90
9776;DHT22;4927;52.472;13.108;2022-11-25T13:56:29;8.20;99.90
9776;DHT22;4927;52.472;13.108;2022-11-25T14:01:32;8.20;99.90
9776;DHT22;4927;52.472;13.108;2022-11-25T14:12:30;8.30;99.90
9776;DHT22;4927;52.472;13.108;2022-11-25T14:28:30;8.10;99.90
9776;DHT22;4927;52.472;13.108;2022-11-25T14:33:37;8.10;99.90
9776;DHT22;4927;52.472;13.108;2022-11-25T14:38:44;7.90;99.90
9776;DHT22;4927;52.472;13.108;2022-11-25T14:43:51;7.90;99.90
9776;DHT22;4927;52.472;13.108;2022-11-25T14:48:58;7.90;99.90
9776;DHT22;4927;52.472;13.108;2022-11-25T14:54:06;7.70;99.90
9776;DHT22;4927;52.472;13.108;2022-11-25T14:59:09;7.70;99.90
9776;DHT22;4927;52.472;13.108;2022-11-25T15:04:18;7.60;99.90
9776;DHT22;4927;52.472;13.108;2022-11-25T15:09:25;7.60;99.90
9776;DHT22;4927;52.472;13.108;2022-11-25T15:14:32;7.60;99.90
9776;DHT22;4927;52.472;13.108;2022-11-25T15:19:37;7.50;99.90
9776;DHT22;4927;52.472;13.108;2022-11-25T15:24:44;7.40;99.90
9776;DHT22;4927;52.472;13.108;2022-11-25T15:29:50;7.40;99.90
9776;DHT22;4927;52.472;13.108;2022-11-25T15:34:56;7.30;99.90
9776;DHT22;4927;52.472;13.108;2022-11-25T15:45:19;7.30;99.90
9776;DHT22;4927;52.472;13.108;2022-11-25T15:50:25;7.20;99.90
9776;DHT22;4927;52.472;13.108;2022-11-25T15:55:32;7.20;99.90
9776;DHT22;4927;52.472;13.108;2022-11-25T16:00:38;7.20;99.90
9776;DHT22;4927;52.472;13.108;2022-11-25T16:05:51;7.20;99.90
9776;DHT22;4927;52.472;13.108;2022-11-25T16:10:58;7.20;99.90
9776;DHT22;4927;52.472;13.108;2022-11-25T16:16:11;7.20;99.90
9776;DHT22;4927;52.472;13.108;2022-11-25T16:21:17;7.10;99.90
9776;DHT22;4927;52.472;13.108;2022-11-25T16:26:27;7.10;99.90
9776;DHT22;4927;52.472;13.108;2022-11-25T16:31:33;7.20;99.90
9776;DHT22;4927;52.472;13.108;2022-11-25T16:36:40;7.10;99.90
9776;DHT22;4927;52.472;13.108;2022-11-25T16:41:44;7.10;99.90
9776;DHT22;4927;52.472;13.108;2022-11-25T16:46:50;7.10;99.90
9776;DHT22;4927;52.472;13.108;2022-11-25T16:51:56;7.10;99.90
9776;DHT22;4927;52.472;13.108;2022-11-25T16:57:02;7.00;99.90
9776;DHT22;4927;52.472;13.108;2022-11-25T17:02:13;6.90;99.90
9776;DHT22;4927;52.472;13.108;2022-11-25T17:07:18;7.00;99.90
9776;DHT22;4927;52.472;13.108;2022-11-25T17:12:26;7.00;99.90
9776;DHT22;4927;52.472;13.108;2022-11-25T17:17:31;7.00;99.90
9776;DHT22;4927;52.472;13.108;2022-11-25T17:22:37;6.90;99.90
9776;DHT22;4927;52.472;13.108;2022-11-25T17:27:43;7.00;99.90
9776;DHT22;4927;52.472;13.108;2022-11-25T17:32:53;6.90;99.90
9776;DHT22;4927;52.472;13.108;2022-11-25T17:37:58;6.90;99.90
9776;DHT22;4927;52.472;13.108;2022-11-25T17:43:03;6.90;99.90
9776;DHT22;4927;52.472;13.108;2022-11-25T17:48:11;6.90;99.90
9776;DHT22;4927;52.472;13.108;2022-11-25T17:53:17;6.90;99.90
9776;DHT22;4927;52.472;13.108;2022-11-25T17:58:29;6.80;99.90
9776;DHT22;4927;52.472;13.108;2022-11-25T18:03:33;6.90;99.90
9776;DHT22;4927;52.472;13.108;2022-11-25T18:08:39;6.90;99.90
9776;DHT22;4927;52.472;13.108;2022-11-25T18:13:45;6.80;99.90
9776;DHT22;4927;52.472;13.108;2022-11-25T18:18:50;6.80;99.90
9776;DHT22;4927;52.472;13.108;2022-11-25T18:23:57;6.70;99.90
9776;DHT22;4927;52.472;13.108;2022-11-25T18:29:01;6.70;99.90
9776;DHT22;4927;52.472;13.108;2022-11-25T18:34:11;6.70;99.90
9776;DHT22;4927;52.472;13.108;2022-11-25T18:39:14;6.70;99.90
9776;DHT22;4927;52.472;13.108;2022-11-25T18:44:21;6.70;99.90
9776;DHT22;4927;52.472;13.108;2022-11-25T18:49:26;6.70;99.90
9776;DHT22;4927;52.472;13.108;2022-11-25T18:54:32;6.70;99.90
9776;DHT22;4927;52.472;13.108;2022-11-25T18:59:39;6.70;99.90
9776;DHT22;4927;52.472;13.108;2022-11-25T19:04:45;6.70;99.90
9776;DHT22;4927;52.472;13.108;2022-11-25T19:09:51;6.70;99.90
9776;DHT22;4927;52.472;13.108;2022-11-25T19:14:58;6.70;99.90
9776;DHT22;4927;52.472;13.108;2022-11-25T19:20:11;6.80;99.90
9776;DHT22;4927;52.472;13.108;2022-11-25T19:25:12;6.70;99.90
9776;DHT22;4927;52.472;13.108;2022-11-25T19:30:20;6.80;99.90
9776;DHT22;4927;52.472;13.108;2022-11-25T19:35:28;6.80;99.90
9776;DHT22;4927;52.472;13.108;2022-11-25T19:40:32;6.80;99.90
9776;DHT22;4927;52.472;13.108;2022-11-25T19:45:36;6.80;99.90
9776;DHT22;4927;52.472;13.108;2022-11-25T19:50:48;6.80;99.90
9776;DHT22;4927;52.472;13.108;2022-11-25T19:55:54;6.90;99.90
9776;DHT22;4927;52.472;13.108;2022-11-25T20:01:01;6.90;99.90
9776;DHT22;4927;52.472;13.108;2022-11-25T20:06:05;6.90;99.90
9776;DHT22;4927;52.472;13.108;2022-11-25T20:11:12;6.90;99.90
9776;DHT22;4927;52.472;13.108;2022-11-25T20:16:20;6.90;99.90
9776;DHT22;4927;52.472;13.108;2022-11-25T20:21:26;6.90;99.90
9776;DHT22;4927;52.472;13.108;2022-11-25T20:26:35;6.90;99.90
9776;DHT22;4927;52.472;13.108;2022-11-25T20:31:40;6.90;99.90
9776;DHT22;4927;52.472;13.108;2022-11-25T20:36:44;6.90;99.90
9776;DHT22;4927;52.472;13.108;2022-11-25T20:41:48;6.90;99.90
9776;DHT22;4927;52.472;13.108;2022-11-25T20:46:55;6.90;99.90
9776;DHT22;4927;52.472;13.108;2022-11-25T20:51:59;6.90;99.90
9776;DHT22;4927;52.472;13.108;2022-11-25T20:57:07;7.00;99.90
9776;DHT22;4927;52.472;13.108;2022-11-25T21:02:13;6.90;99.90
9776;DHT22;4927;52.472;13.108;2022-11-25T21:07:19;6.90;99.90
9776;DHT22;4927;52.472;13.108;2022-11-25T21:12:26;7.00;99.90
9776;DHT22;4927;52.472;13.108;2022-11-25T21:17:32;7.00;99.90
9776;DHT22;4927;52.472;13.108;2022-11-25T21:22:39;7.00;99.90
9776;DHT22;4927;52.472;13.108;2022-11-25T21:27:45;7.00;99.90
9776;DHT22;4927;52.472;13.108;2022-11-25T21:32:53;7.00;99.90
9776;DHT22;4927;52.472;13.108;2022-11-25T21:38:04;7.00;99.90
9776;DHT22;4927;52.472;13.108;2022-11-25T21:43:12;7.10;99.90
9776;DHT22;4927;52.472;13.108;2022-11-25T21:48:18;7.00;99.90
9776;DHT22;4927;52.472;13.108;2022-11-25T21:53:24;7.10;99.90
9776;DHT22;4927;52.472;13.108;2022-11-25T21:58:30;7.10;99.90
9776;DHT22;4927;52.472;13.108;2022-11-25T22:03:34;7.10;99.90
9776;DHT22;4927;52.472;13.108;2022-11-25T22:08:40;7.10;99.90
9776;DHT22;4927;52.472;13.108;2022-11-25T22:13:47;7.10;99.90
9776;DHT22;4927;52.472;13.108;2022-11-25T22:18:53;7.10;99.90
9776;DHT22;4927;52.472;13.108;2022-11-25T22:24:09;7.10;99.90
9776;DHT22;4927;52.472;13.108;2022-11-25T22:29:12;7.20;99.90
9776;DHT22;4927;52.472;13.108;2022-11-25T22:34:19;7.20;99.90
9776;DHT22;4927;52.472;13.108;2022-11-25T22:39:25;7.10;99.90
9776;DHT22;4927;52.472;13.108;2022-11-25T22:44:36;7.20;99.90
9776;DHT22;4927;52.472;13.108;2022-11-25T22:49:42;7.20;99.90
9776;DHT22;4927;52.472;13.108;2022-11-25T22:54:48;7.20;99.90
9776;DHT22;4927;52.472;13.108;2022-11-25T22:59:55;7.20;99.90
9776;DHT22;4927;52.472;13.108;2022-11-25T23:05:22;7.20;99.90
9776;DHT22;4927;52.472;13.108;2022-11-25T23:10:22;7.20;99.90
9776;DHT22;4927;52.472;13.108;2022-11-25T23:15:25;7.20;99.90
9776;DHT22;4927;52.472;13.108;2022-11-25T23:20:33;7.20;99.90
9776;DHT22;4927;52.472;13.108;2022-11-25T23:25:39;7.20;99.90
9776;DHT22;4927;52.472;13.108;2022-11-25T23:30:46;7.20;99.90
9776;DHT22;4927;52.472;13.108;2022-11-25T23:35:51;7.20;99.90
9776;DHT22;4927;52.472;13.108;2022-11-25T23:40:57;7.20;99.90
9776;DHT22;4927;52.472;13.108;2022-11-25T23:46:02;7.20;99.90
9776;DHT22;4927;52.472;13.108;2022-11-25T23:51:07;7.30;99.90
9776;DHT22;4927;52.472;13.108;2022-11-25T23:56:13;7.30;99.90
